New Edinburg, Arkansas
Current Conditions -  °F | °C
As of 5:53 AM on Monday 26 Jan 2015 (Local Time) from KLLQ Reporting Station
Few Clouds Few Clouds  
Wind Chill: 42°   Ceiling: Unl
Heat Index: 42°   Visibility: 10mi
Dew Point: 32°   Wind: 3mph
Humidity: 67%   Direction: 340°NNW
Pressure: 30.11"   Gusts: NA
Location:  33.76°N, 92.24°W
Report Text: KLLQ 261153Z AUTO 34003KT 10SM FEW030 06/00 A3011 RMK AO2 SLP197 T00560000 10083 20056 53013
Loading
Personal Weather Stations






























Interactive Weather Map New forecast layout! Learn more

10-Day Weather Forecast

Advertisements
Track Severe Weather on mobile